sensor_id;sensor_type;location;lat;lon;timestamp;P1;durP1;ratioP1;P2;durP2;ratioP2
41179;SDS011;26913;48.240;16.496;2023-02-11T00:00:54;35.87;;;20.27;;
41179;SDS011;26913;48.240;16.496;2023-02-11T00:03:19;39.20;;;21.43;;
41179;SDS011;26913;48.240;16.496;2023-02-11T00:05:45;34.40;;;18.93;;
41179;SDS011;26913;48.240;16.496;2023-02-11T00:08:10;34.50;;;19.90;;
41179;SDS011;26913;48.240;16.496;2023-02-11T00:10:41;40.87;;;20.40;;
41179;SDS011;26913;48.240;16.496;2023-02-11T00:13:06;33.57;;;19.40;;
41179;SDS011;26913;48.240;16.496;2023-02-11T00:15:32;35.73;;;19.73;;
41179;SDS011;26913;48.240;16.496;2023-02-11T00:17:57;35.07;;;20.33;;
41179;SDS011;26913;48.240;16.496;2023-02-11T00:20:23;32.90;;;19.20;;
41179;SDS011;26913;48.240;16.496;2023-02-11T00:22:48;34.23;;;20.07;;
41179;SDS011;26913;48.240;16.496;2023-02-11T00:25:14;36.67;;;20.67;;
41179;SDS011;26913;48.240;16.496;2023-02-11T00:27:39;34.43;;;19.53;;
41179;SDS011;26913;48.240;16.496;2023-02-11T00:30:05;33.87;;;17.43;;
41179;SDS011;26913;48.240;16.496;2023-02-11T00:32:31;32.17;;;18.43;;
41179;SDS011;26913;48.240;16.496;2023-02-11T00:34:56;31.27;;;17.87;;
41179;SDS011;26913;48.240;16.496;2023-02-11T00:37:22;32.43;;;18.60;;
41179;SDS011;26913;48.240;16.496;2023-02-11T00:39:47;33.57;;;19.07;;
41179;SDS011;26913;48.240;16.496;2023-02-11T00:42:14;31.27;;;17.27;;
41179;SDS011;26913;48.240;16.496;2023-02-11T00:44:40;34.67;;;19.23;;
41179;SDS011;26913;48.240;16.496;2023-02-11T00:47:05;30.97;;;18.10;;
41179;SDS011;26913;48.240;16.496;2023-02-11T00:49:31;32.60;;;18.43;;
41179;SDS011;26913;48.240;16.496;2023-02-11T00:51:56;31.90;;;18.60;;
41179;SDS011;26913;48.240;16.496;2023-02-11T00:54:22;29.67;;;17.77;;
41179;SDS011;26913;48.240;16.496;2023-02-11T00:56:47;34.30;;;19.00;;
41179;SDS011;26913;48.240;16.496;2023-02-11T00:59:13;32.97;;;18.93;;
41179;SDS011;26913;48.240;16.496;2023-02-11T01:01:38;34.70;;;19.23;;
41179;SDS011;26913;48.240;16.496;2023-02-11T01:04:04;35.33;;;18.10;;
41179;SDS011;26913;48.240;16.496;2023-02-11T01:06:29;35.63;;;19.93;;
41179;SDS011;26913;48.240;16.496;2023-02-11T01:08:55;31.93;;;18.33;;
41179;SDS011;26913;48.240;16.496;2023-02-11T01:11:20;31.47;;;17.93;;
41179;SDS011;26913;48.240;16.496;2023-02-11T01:13:46;33.00;;;19.10;;
41179;SDS011;26913;48.240;16.496;2023-02-11T01:16:13;33.43;;;19.63;;
41179;SDS011;26913;48.240;16.496;2023-02-11T01:18:39;33.60;;;18.10;;
41179;SDS011;26913;48.240;16.496;2023-02-11T01:21:06;29.47;;;16.93;;
41179;SDS011;26913;48.240;16.496;2023-02-11T01:23:31;30.00;;;17.80;;
41179;SDS011;26913;48.240;16.496;2023-02-11T01:25:57;32.93;;;19.23;;
41179;SDS011;26913;48.240;16.496;2023-02-11T01:28:23;27.63;;;16.97;;
41179;SDS011;26913;48.240;16.496;2023-02-11T01:30:50;27.57;;;17.40;;
41179;SDS011;26913;48.240;16.496;2023-02-11T01:33:16;28.43;;;17.17;;
41179;SDS011;26913;48.240;16.496;2023-02-11T01:35:42;28.33;;;16.17;;
41179;SDS011;26913;48.240;16.496;2023-02-11T01:38:13;31.13;;;18.17;;
41179;SDS011;26913;48.240;16.496;2023-02-11T01:40:44;32.27;;;17.40;;
41179;SDS011;26913;48.240;16.496;2023-02-11T01:43:11;30.20;;;16.57;;
41179;SDS011;26913;48.240;16.496;2023-02-11T01:48:09;29.20;;;17.10;;
41179;SDS011;26913;48.240;16.496;2023-02-11T01:50:36;30.77;;;18.93;;
41179;SDS011;26913;48.240;16.496;2023-02-11T01:53:02;32.30;;;19.23;;
41179;SDS011;26913;48.240;16.496;2023-02-11T01:55:48;31.53;;;18.03;;
41179;SDS011;26913;48.240;16.496;2023-02-11T01:58:32;29.50;;;17.00;;
41179;SDS011;26913;48.240;16.496;2023-02-11T02:00:58;33.60;;;18.53;;
41179;SDS011;26913;48.240;16.496;2023-02-11T02:03:25;29.90;;;18.03;;
41179;SDS011;26913;48.240;16.496;2023-02-11T02:05:58;36.43;;;19.23;;
41179;SDS011;26913;48.240;16.496;2023-02-11T02:11:02;37.22;;;20.08;;
41179;SDS011;26913;48.240;16.496;2023-02-11T02:13:29;37.10;;;20.13;;
41179;SDS011;26913;48.240;16.496;2023-02-11T02:15:58;38.23;;;19.67;;
41179;SDS011;26913;48.240;16.496;2023-02-11T02:40:23;34.73;;;19.10;;
41179;SDS011;26913;48.240;16.496;2023-02-11T02:43:09;35.73;;;19.57;;
41179;SDS011;26913;48.240;16.496;2023-02-11T02:45:35;37.57;;;20.53;;
41179;SDS011;26913;48.240;16.496;2023-02-11T02:48:01;36.67;;;20.07;;
41179;SDS011;26913;48.240;16.496;2023-02-11T02:50:34;36.67;;;20.90;;
41179;SDS011;26913;48.240;16.496;2023-02-11T02:56:29;36.83;;;21.60;;
41179;SDS011;26913;48.240;16.496;2023-02-11T02:59:23;34.83;;;20.23;;
41179;SDS011;26913;48.240;16.496;2023-02-11T03:12:01;39.63;;;21.67;;
41179;SDS011;26913;48.240;16.496;2023-02-11T03:14:27;40.80;;;22.93;;
41179;SDS011;26913;48.240;16.496;2023-02-11T03:16:53;39.90;;;22.03;;
41179;SDS011;26913;48.240;16.496;2023-02-11T03:19:22;38.80;;;21.07;;
41179;SDS011;26913;48.240;16.496;2023-02-11T03:21:51;38.50;;;22.63;;
41179;SDS011;26913;48.240;16.496;2023-02-11T03:24:19;37.20;;;20.57;;
41179;SDS011;26913;48.240;16.496;2023-02-11T03:26:57;39.50;;;21.13;;
41179;SDS011;26913;48.240;16.496;2023-02-11T03:32:00;40.73;;;23.33;;
41179;SDS011;26913;48.240;16.496;2023-02-11T03:34:32;40.67;;;23.90;;
41179;SDS011;26913;48.240;16.496;2023-02-11T03:37:04;38.87;;;22.03;;
41179;SDS011;26913;48.240;16.496;2023-02-11T03:39:35;40.07;;;22.97;;
41179;SDS011;26913;48.240;16.496;2023-02-11T03:42:04;40.97;;;23.00;;
41179;SDS011;26913;48.240;16.496;2023-02-11T03:44:36;40.17;;;22.73;;
41179;SDS011;26913;48.240;16.496;2023-02-11T03:47:06;42.20;;;23.25;;
41179;SDS011;26913;48.240;16.496;2023-02-11T03:49:32;41.90;;;24.13;;
41179;SDS011;26913;48.240;16.496;2023-02-11T03:51:59;42.53;;;23.17;;
41179;SDS011;26913;48.240;16.496;2023-02-11T03:54:27;45.07;;;23.37;;
41179;SDS011;26913;48.240;16.496;2023-02-11T03:56:55;46.63;;;24.53;;
41179;SDS011;26913;48.240;16.496;2023-02-11T03:59:22;48.60;;;25.17;;
41179;SDS011;26913;48.240;16.496;2023-02-11T04:01:48;42.90;;;24.97;;
41179;SDS011;26913;48.240;16.496;2023-02-11T04:04:13;41.07;;;25.13;;
41179;SDS011;26913;48.240;16.496;2023-02-11T04:06:39;43.93;;;24.33;;
41179;SDS011;26913;48.240;16.496;2023-02-11T04:09:05;48.10;;;27.40;;
41179;SDS011;26913;48.240;16.496;2023-02-11T04:11:30;44.30;;;25.33;;
41179;SDS011;26913;48.240;16.496;2023-02-11T04:13:56;43.97;;;27.77;;
41179;SDS011;26913;48.240;16.496;2023-02-11T04:16:21;44.80;;;27.63;;
41179;SDS011;26913;48.240;16.496;2023-02-11T04:18:47;48.80;;;29.80;;
41179;SDS011;26913;48.240;16.496;2023-02-11T04:21:12;51.03;;;29.50;;
41179;SDS011;26913;48.240;16.496;2023-02-11T04:23:38;50.57;;;28.93;;
41179;SDS011;26913;48.240;16.496;2023-02-11T04:26:03;48.47;;;28.47;;
41179;SDS011;26913;48.240;16.496;2023-02-11T04:28:29;54.43;;;30.27;;
41179;SDS011;26913;48.240;16.496;2023-02-11T04:30:55;42.40;;;26.10;;
41179;SDS011;26913;48.240;16.496;2023-02-11T04:33:21;41.93;;;25.90;;
41179;SDS011;26913;48.240;16.496;2023-02-11T04:35:46;44.27;;;25.47;;
41179;SDS011;26913;48.240;16.496;2023-02-11T04:38:12;43.77;;;25.90;;
41179;SDS011;26913;48.240;16.496;2023-02-11T04:40:38;38.53;;;23.47;;
41179;SDS011;26913;48.240;16.496;2023-02-11T04:43:03;44.83;;;26.30;;
41179;SDS011;26913;48.240;16.496;2023-02-11T04:45:29;44.97;;;26.53;;
41179;SDS011;26913;48.240;16.496;2023-02-11T04:47:55;45.23;;;24.70;;
41179;SDS011;26913;48.240;16.496;2023-02-11T04:50:20;39.33;;;24.63;;
41179;SDS011;26913;48.240;16.496;2023-02-11T04:52:46;49.27;;;26.47;;
41179;SDS011;26913;48.240;16.496;2023-02-11T04:55:11;44.37;;;25.60;;
41179;SDS011;26913;48.240;16.496;2023-02-11T04:57:37;44.47;;;25.83;;
41179;SDS011;26913;48.240;16.496;2023-02-11T05:00:03;42.67;;;25.43;;
41179;SDS011;26913;48.240;16.496;2023-02-11T05:02:29;43.37;;;26.00;;
41179;SDS011;26913;48.240;16.496;2023-02-11T05:04:54;42.10;;;24.97;;
41179;SDS011;26913;48.240;16.496;2023-02-11T05:07:20;46.63;;;26.50;;
41179;SDS011;26913;48.240;16.496;2023-02-11T05:09:45;46.87;;;27.27;;
41179;SDS011;26913;48.240;16.496;2023-02-11T05:12:10;45.13;;;27.57;;
41179;SDS011;26913;48.240;16.496;2023-02-11T05:14:36;44.53;;;27.10;;
41179;SDS011;26913;48.240;16.496;2023-02-11T05:17:01;44.40;;;27.00;;
41179;SDS011;26913;48.240;16.496;2023-02-11T05:19:27;45.43;;;27.77;;
41179;SDS011;26913;48.240;16.496;2023-02-11T05:21:53;46.63;;;25.97;;
41179;SDS011;26913;48.240;16.496;2023-02-11T05:24:18;42.67;;;25.07;;
41179;SDS011;26913;48.240;16.496;2023-02-11T05:26:44;45.53;;;27.37;;
41179;SDS011;26913;48.240;16.496;2023-02-11T05:29:09;47.13;;;27.13;;
41179;SDS011;26913;48.240;16.496;2023-02-11T05:31:35;47.03;;;26.50;;
41179;SDS011;26913;48.240;16.496;2023-02-11T05:34:00;48.70;;;29.37;;
41179;SDS011;26913;48.240;16.496;2023-02-11T05:36:28;47.70;;;28.23;;
41179;SDS011;26913;48.240;16.496;2023-02-11T05:38:54;50.30;;;29.73;;
41179;SDS011;26913;48.240;16.496;2023-02-11T05:41:19;42.10;;;26.60;;
41179;SDS011;26913;48.240;16.496;2023-02-11T05:43:46;49.20;;;30.23;;
41179;SDS011;26913;48.240;16.496;2023-02-11T05:46:15;41.77;;;25.07;;
41179;SDS011;26913;48.240;16.496;2023-02-11T05:48:41;47.60;;;28.97;;
41179;SDS011;26913;48.240;16.496;2023-02-11T05:51:07;47.40;;;29.00;;
41179;SDS011;26913;48.240;16.496;2023-02-11T05:53:32;50.43;;;28.77;;
41179;SDS011;26913;48.240;16.496;2023-02-11T05:55:58;45.03;;;27.77;;
41179;SDS011;26913;48.240;16.496;2023-02-11T05:58:23;44.00;;;27.07;;
41179;SDS011;26913;48.240;16.496;2023-02-11T06:00:49;46.60;;;28.90;;
41179;SDS011;26913;48.240;16.496;2023-02-11T06:03:14;42.50;;;27.93;;
41179;SDS011;26913;48.240;16.496;2023-02-11T06:05:41;44.07;;;27.03;;
41179;SDS011;26913;48.240;16.496;2023-02-11T06:08:07;47.17;;;27.60;;
41179;SDS011;26913;48.240;16.496;2023-02-11T06:10:32;47.47;;;27.93;;
41179;SDS011;26913;48.240;16.496;2023-02-11T06:12:58;49.17;;;29.17;;
41179;SDS011;26913;48.240;16.496;2023-02-11T06:15:23;45.97;;;27.90;;
41179;SDS011;26913;48.240;16.496;2023-02-11T06:17:49;45.53;;;28.70;;
41179;SDS011;26913;48.240;16.496;2023-02-11T06:20:14;47.53;;;27.50;;
41179;SDS011;26913;48.240;16.496;2023-02-11T06:22:40;47.90;;;29.23;;
41179;SDS011;26913;48.240;16.496;2023-02-11T06:25:05;43.60;;;26.60;;
41179;SDS011;26913;48.240;16.496;2023-02-11T06:27:31;46.70;;;28.47;;
41179;SDS011;26913;48.240;16.496;2023-02-11T06:29:57;45.87;;;27.27;;
41179;SDS011;26913;48.240;16.496;2023-02-11T06:32:22;51.77;;;27.53;;
41179;SDS011;26913;48.240;16.496;2023-02-11T06:34:47;45.27;;;26.37;;
41179;SDS011;26913;48.240;16.496;2023-02-11T06:37:13;42.90;;;27.30;;
41179;SDS011;26913;48.240;16.496;2023-02-11T06:39:38;44.23;;;28.23;;
41179;SDS011;26913;48.240;16.496;2023-02-11T06:42:04;39.43;;;25.83;;
41179;SDS011;26913;48.240;16.496;2023-02-11T06:44:29;46.33;;;26.63;;
41179;SDS011;26913;48.240;16.496;2023-02-11T06:46:56;47.87;;;26.57;;
41179;SDS011;26913;48.240;16.496;2023-02-11T06:49:21;44.50;;;26.33;;
41179;SDS011;26913;48.240;16.496;2023-02-11T06:51:47;49.27;;;27.53;;
41179;SDS011;26913;48.240;16.496;2023-02-11T06:54:12;47.37;;;28.07;;
41179;SDS011;26913;48.240;16.496;2023-02-11T06:56:39;40.43;;;25.57;;
41179;SDS011;26913;48.240;16.496;2023-02-11T06:59:05;46.40;;;27.23;;
41179;SDS011;26913;48.240;16.496;2023-02-11T07:01:33;43.77;;;26.57;;
41179;SDS011;26913;48.240;16.496;2023-02-11T07:03:59;42.30;;;27.33;;
41179;SDS011;26913;48.240;16.496;2023-02-11T07:06:25;44.03;;;26.97;;
41179;SDS011;26913;48.240;16.496;2023-02-11T07:08:52;45.50;;;27.97;;
41179;SDS011;26913;48.240;16.496;2023-02-11T07:11:19;48.70;;;26.60;;
41179;SDS011;26913;48.240;16.496;2023-02-11T07:13:48;40.57;;;26.67;;
41179;SDS011;26913;48.240;16.496;2023-02-11T07:16:14;42.50;;;27.17;;
41179;SDS011;26913;48.240;16.496;2023-02-11T07:18:42;42.40;;;26.30;;
41179;SDS011;26913;48.240;16.496;2023-02-11T07:21:08;43.47;;;25.47;;
41179;SDS011;26913;48.240;16.496;2023-02-11T07:23:35;44.80;;;27.10;;
41179;SDS011;26913;48.240;16.496;2023-02-11T07:26:09;39.58;;;25.13;;
41179;SDS011;26913;48.240;16.496;2023-02-11T07:28:36;45.22;;;26.13;;
41179;SDS011;26913;48.240;16.496;2023-02-11T07:31:06;38.75;;;24.25;;
41179;SDS011;26913;48.240;16.496;2023-02-11T07:33:33;39.97;;;24.60;;
41179;SDS011;26913;48.240;16.496;2023-02-11T07:35:59;41.28;;;24.73;;
41179;SDS011;26913;48.240;16.496;2023-02-11T07:38:25;41.80;;;23.52;;
41179;SDS011;26913;48.240;16.496;2023-02-11T07:40:51;36.80;;;24.83;;
41179;SDS011;26913;48.240;16.496;2023-02-11T07:43:16;37.75;;;25.00;;
41179;SDS011;26913;48.240;16.496;2023-02-11T07:45:42;36.58;;;23.48;;
41179;SDS011;26913;48.240;16.496;2023-02-11T07:48:07;36.55;;;23.30;;
41179;SDS011;26913;48.240;16.496;2023-02-11T07:50:33;40.17;;;24.20;;
41179;SDS011;26913;48.240;16.496;2023-02-11T07:52:58;38.88;;;24.02;;
41179;SDS011;26913;48.240;16.496;2023-02-11T07:55:24;36.28;;;22.83;;
41179;SDS011;26913;48.240;16.496;2023-02-11T07:57:49;34.97;;;21.33;;
41179;SDS011;26913;48.240;16.496;2023-02-11T08:00:15;38.22;;;23.92;;
41179;SDS011;26913;48.240;16.496;2023-02-11T08:02:41;41.88;;;24.70;;
41179;SDS011;26913;48.240;16.496;2023-02-11T08:05:06;35.97;;;23.70;;
41179;SDS011;26913;48.240;16.496;2023-02-11T08:07:32;36.70;;;23.10;;
41179;SDS011;26913;48.240;16.496;2023-02-11T08:09:58;36.08;;;21.92;;
41179;SDS011;26913;48.240;16.496;2023-02-11T08:12:23;37.60;;;22.52;;
41179;SDS011;26913;48.240;16.496;2023-02-11T08:14:48;35.92;;;22.42;;
41179;SDS011;26913;48.240;16.496;2023-02-11T08:17:14;37.30;;;21.23;;
41179;SDS011;26913;48.240;16.496;2023-02-11T08:19:39;34.53;;;21.40;;
41179;SDS011;26913;48.240;16.496;2023-02-11T08:22:08;32.47;;;19.30;;
41179;SDS011;26913;48.240;16.496;2023-02-11T08:24:33;34.05;;;19.90;;
41179;SDS011;26913;48.240;16.496;2023-02-11T08:26:59;31.42;;;20.17;;
41179;SDS011;26913;48.240;16.496;2023-02-11T08:29:24;34.30;;;20.23;;
41179;SDS011;26913;48.240;16.496;2023-02-11T08:31:50;30.85;;;19.08;;
41179;SDS011;26913;48.240;16.496;2023-02-11T08:34:15;37.65;;;20.65;;
41179;SDS011;26913;48.240;16.496;2023-02-11T08:36:43;36.40;;;19.38;;
41179;SDS011;26913;48.240;16.496;2023-02-11T08:39:14;36.70;;;19.85;;
41179;SDS011;26913;48.240;16.496;2023-02-11T08:41:41;33.33;;;19.77;;
41179;SDS011;26913;48.240;16.496;2023-02-11T08:44:07;31.73;;;17.77;;
41179;SDS011;26913;48.240;16.496;2023-02-11T08:46:32;35.35;;;18.73;;
41179;SDS011;26913;48.240;16.496;2023-02-11T08:48:57;29.45;;;17.80;;
41179;SDS011;26913;48.240;16.496;2023-02-11T08:51:24;29.67;;;17.33;;
41179;SDS011;26913;48.240;16.496;2023-02-11T08:53:57;31.80;;;17.90;;
41179;SDS011;26913;48.240;16.496;2023-02-11T08:56:23;35.20;;;18.15;;
41179;SDS011;26913;48.240;16.496;2023-02-11T08:58:49;31.58;;;17.48;;
41179;SDS011;26913;48.240;16.496;2023-02-11T09:01:16;32.40;;;17.80;;
41179;SDS011;26913;48.240;16.496;2023-02-11T09:03:43;28.83;;;17.77;;
41179;SDS011;26913;48.240;16.496;2023-02-11T09:06:12;37.13;;;17.77;;
41179;SDS011;26913;48.240;16.496;2023-02-11T09:08:42;34.08;;;18.67;;
41179;SDS011;26913;48.240;16.496;2023-02-11T09:11:09;29.90;;;17.67;;
41179;SDS011;26913;48.240;16.496;2023-02-11T09:13:35;29.65;;;17.65;;
41179;SDS011;26913;48.240;16.496;2023-02-11T09:16:01;29.38;;;17.30;;
41179;SDS011;26913;48.240;16.496;2023-02-11T09:18:28;35.17;;;19.58;;
41179;SDS011;26913;48.240;16.496;2023-02-11T09:21:07;32.42;;;20.27;;
41179;SDS011;26913;48.240;16.496;2023-02-11T09:23:33;31.20;;;16.95;;
41179;SDS011;26913;48.240;16.496;2023-02-11T09:26:05;30.52;;;19.35;;
41179;SDS011;26913;48.240;16.496;2023-02-11T09:28:32;29.25;;;18.45;;
41179;SDS011;26913;48.240;16.496;2023-02-11T09:30:57;29.15;;;18.30;;
41179;SDS011;26913;48.240;16.496;2023-02-11T09:33:23;32.45;;;18.48;;
41179;SDS011;26913;48.240;16.496;2023-02-11T09:35:48;37.17;;;19.10;;
41179;SDS011;26913;48.240;16.496;2023-02-11T09:38:14;31.38;;;18.58;;
41179;SDS011;26913;48.240;16.496;2023-02-11T09:40:43;32.70;;;18.27;;
41179;SDS011;26913;48.240;16.496;2023-02-11T09:43:15;32.90;;;18.27;;
41179;SDS011;26913;48.240;16.496;2023-02-11T09:45:42;34.78;;;18.40;;
41179;SDS011;26913;48.240;16.496;2023-02-11T09:50:45;28.50;;;18.02;;
41179;SDS011;26913;48.240;16.496;2023-02-11T09:53:17;30.00;;;18.50;;
41179;SDS011;26913;48.240;16.496;2023-02-11T09:55:51;32.10;;;19.00;;
41179;SDS011;26913;48.240;16.496;2023-02-11T09:58:25;34.95;;;17.30;;
41179;SDS011;26913;48.240;16.496;2023-02-11T10:01:28;31.75;;;17.77;;
41179;SDS011;26913;48.240;16.496;2023-02-11T10:20:45;40.05;;;17.63;;
41179;SDS011;26913;48.240;16.496;2023-02-11T10:23:15;23.50;;;15.85;;
41179;SDS011;26913;48.240;16.496;2023-02-11T10:25:46;30.42;;;16.38;;
41179;SDS011;26913;48.240;16.496;2023-02-11T10:28:17;24.30;;;14.63;;
41179;SDS011;26913;48.240;16.496;2023-02-11T10:33:22;24.95;;;15.70;;
41179;SDS011;26913;48.240;16.496;2023-02-11T10:35:50;27.52;;;15.70;;
41179;SDS011;26913;48.240;16.496;2023-02-11T10:38:16;27.02;;;15.70;;
41179;SDS011;26913;48.240;16.496;2023-02-11T10:40:41;28.92;;;16.35;;
41179;SDS011;26913;48.240;16.496;2023-02-11T10:43:11;22.58;;;15.50;;
41179;SDS011;26913;48.240;16.496;2023-02-11T10:45:43;30.98;;;16.63;;
41179;SDS011;26913;48.240;16.496;2023-02-11T10:56:29;32.88;;;15.73;;
41179;SDS011;26913;48.240;16.496;2023-02-11T10:59:01;22.65;;;14.88;;
41179;SDS011;26913;48.240;16.496;2023-02-11T11:01:45;21.35;;;14.50;;
41179;SDS011;26913;48.240;16.496;2023-02-11T11:06:51;16.10;;;8.18;;
41179;SDS011;26913;48.240;16.496;2023-02-11T11:09:29;22.83;;;14.82;;
41179;SDS011;26913;48.240;16.496;2023-02-11T11:12:30;23.13;;;15.02;;
41179;SDS011;26913;48.240;16.496;2023-02-11T11:14:57;25.73;;;15.35;;
41179;SDS011;26913;48.240;16.496;2023-02-11T11:17:45;24.95;;;16.27;;
41179;SDS011;26913;48.240;16.496;2023-02-11T11:22:43;26.92;;;15.80;;
41179;SDS011;26913;48.240;16.496;2023-02-11T11:25:22;25.83;;;15.10;;
41179;SDS011;26913;48.240;16.496;2023-02-11T11:27:50;26.40;;;15.77;;
41179;SDS011;26913;48.240;16.496;2023-02-11T11:30:18;22.73;;;14.38;;
41179;SDS011;26913;48.240;16.496;2023-02-11T11:32:44;18.70;;;14.00;;
41179;SDS011;26913;48.240;16.496;2023-02-11T11:35:21;20.63;;;14.48;;
41179;SDS011;26913;48.240;16.496;2023-02-11T11:37:56;23.90;;;14.25;;
41179;SDS011;26913;48.240;16.496;2023-02-11T11:45:37;25.63;;;15.20;;
41179;SDS011;26913;48.240;16.496;2023-02-11T11:48:10;21.90;;;15.75;;
41179;SDS011;26913;48.240;16.496;2023-02-11T11:56:44;21.48;;;12.63;;
41179;SDS011;26913;48.240;16.496;2023-02-11T11:58:49;20.35;;;13.38;;
41179;SDS011;26913;48.240;16.496;2023-02-11T12:12:59;18.83;;;11.15;;
41179;SDS011;26913;48.240;16.496;2023-02-11T12:26:18;18.48;;;10.63;;
41179;SDS011;26913;48.240;16.496;2023-02-11T12:31:52;19.75;;;10.90;;
41179;SDS011;26913;48.240;16.496;2023-02-11T12:45:40;14.45;;;8.07;;
41179;SDS011;26913;48.240;16.496;2023-02-11T12:53:35;18.30;;;10.43;;
41179;SDS011;26913;48.240;16.496;2023-02-11T12:59:14;24.35;;;11.52;;
41179;SDS011;26913;48.240;16.496;2023-02-11T13:01:53;20.20;;;11.80;;
41179;SDS011;26913;48.240;16.496;2023-02-11T13:04:23;18.60;;;10.77;;
41179;SDS011;26913;48.240;16.496;2023-02-11T13:06:55;20.10;;;10.93;;
41179;SDS011;26913;48.240;16.496;2023-02-11T13:09:29;24.73;;;13.77;;
41179;SDS011;26913;48.240;16.496;2023-02-11T13:12:03;19.60;;;12.23;;
41179;SDS011;26913;48.240;16.496;2023-02-11T13:14:50;22.42;;;11.85;;
41179;SDS011;26913;48.240;16.496;2023-02-11T13:17:20;26.33;;;12.85;;
41179;SDS011;26913;48.240;16.496;2023-02-11T13:19:52;21.85;;;13.68;;
41179;SDS011;26913;48.240;16.496;2023-02-11T13:22:56;21.50;;;12.18;;
41179;SDS011;26913;48.240;16.496;2023-02-11T13:28:43;17.63;;;11.13;;
41179;SDS011;26913;48.240;16.496;2023-02-11T13:31:18;22.15;;;13.40;;
41179;SDS011;26913;48.240;16.496;2023-02-11T13:33:44;22.83;;;13.07;;
41179;SDS011;26913;48.240;16.496;2023-02-11T13:36:14;26.70;;;13.95;;
41179;SDS011;26913;48.240;16.496;2023-02-11T13:38:50;23.17;;;14.70;;
41179;SDS011;26913;48.240;16.496;2023-02-11T13:41:21;24.23;;;14.13;;
41179;SDS011;26913;48.240;16.496;2023-02-11T13:49:30;22.88;;;13.00;;
41179;SDS011;26913;48.240;16.496;2023-02-11T13:52:00;25.13;;;14.52;;
41179;SDS011;26913;48.240;16.496;2023-02-11T13:54:33;21.58;;;12.85;;
41179;SDS011;26913;48.240;16.496;2023-02-11T14:00:48;19.88;;;12.75;;
41179;SDS011;26913;48.240;16.496;2023-02-11T14:22:24;18.35;;;11.70;;
41179;SDS011;26913;48.240;16.496;2023-02-11T14:24:58;18.65;;;11.45;;
41179;SDS011;26913;48.240;16.496;2023-02-11T14:30:25;18.35;;;11.02;;
41179;SDS011;26913;48.240;16.496;2023-02-11T14:35:50;18.13;;;11.68;;
41179;SDS011;26913;48.240;16.496;2023-02-11T14:38:28;18.65;;;10.07;;
41179;SDS011;26913;48.240;16.496;2023-02-11T14:41:06;16.63;;;11.52;;
41179;SDS011;26913;48.240;16.496;2023-02-11T14:43:46;21.52;;;11.05;;
41179;SDS011;26913;48.240;16.496;2023-02-11T14:46:22;20.88;;;11.82;;
41179;SDS011;26913;48.240;16.496;2023-02-11T14:48:50;19.20;;;11.25;;
41179;SDS011;26913;48.240;16.496;2023-02-11T14:51:27;21.10;;;11.68;;
41179;SDS011;26913;48.240;16.496;2023-02-11T14:54:14;17.25;;;11.07;;
41179;SDS011;26913;48.240;16.496;2023-02-11T14:56:42;16.40;;;9.85;;
41179;SDS011;26913;48.240;16.496;2023-02-11T14:59:29;15.90;;;10.70;;
41179;SDS011;26913;48.240;16.496;2023-02-11T15:01:54;17.08;;;10.85;;
41179;SDS011;26913;48.240;16.496;2023-02-11T15:04:25;15.07;;;10.02;;
41179;SDS011;26913;48.240;16.496;2023-02-11T15:09:32;14.07;;;9.55;;
41179;SDS011;26913;48.240;16.496;2023-02-11T15:11:58;15.85;;;10.43;;
41179;SDS011;26913;48.240;16.496;2023-02-11T15:14:25;14.48;;;9.65;;
41179;SDS011;26913;48.240;16.496;2023-02-11T15:16:53;16.08;;;10.55;;
41179;SDS011;26913;48.240;16.496;2023-02-11T15:19:22;16.02;;;9.13;;
41179;SDS011;26913;48.240;16.496;2023-02-11T15:21:49;17.95;;;9.00;;
41179;SDS011;26913;48.240;16.496;2023-02-11T15:24:25;13.02;;;8.52;;
41179;SDS011;26913;48.240;16.496;2023-02-11T15:27:00;17.10;;;9.93;;
41179;SDS011;26913;48.240;16.496;2023-02-11T15:29:34;16.85;;;10.75;;
41179;SDS011;26913;48.240;16.496;2023-02-11T15:32:03;14.27;;;9.50;;
41179;SDS011;26913;48.240;16.496;2023-02-11T15:34:31;17.15;;;9.25;;
41179;SDS011;26913;48.240;16.496;2023-02-11T15:36:57;13.10;;;9.60;;
41179;SDS011;26913;48.240;16.496;2023-02-11T15:39:37;15.02;;;9.52;;
41179;SDS011;26913;48.240;16.496;2023-02-11T15:42:24;14.27;;;8.75;;
41179;SDS011;26913;48.240;16.496;2023-02-11T15:50:36;13.02;;;9.15;;
41179;SDS011;26913;48.240;16.496;2023-02-11T15:53:15;14.25;;;9.52;;
41179;SDS011;26913;48.240;16.496;2023-02-11T15:55:46;13.57;;;9.27;;
41179;SDS011;26913;48.240;16.496;2023-02-11T15:58:14;17.15;;;9.90;;
41179;SDS011;26913;48.240;16.496;2023-02-11T16:00:47;15.73;;;10.05;;
41179;SDS011;26913;48.240;16.496;2023-02-11T16:03:23;17.85;;;12.30;;
41179;SDS011;26913;48.240;16.496;2023-02-11T16:05:52;15.98;;;10.50;;
41179;SDS011;26913;48.240;16.496;2023-02-11T16:08:22;14.63;;;10.02;;
41179;SDS011;26913;48.240;16.496;2023-02-11T16:10:54;15.30;;;10.13;;
41179;SDS011;26913;48.240;16.496;2023-02-11T16:13:29;14.27;;;10.35;;
41179;SDS011;26913;48.240;16.496;2023-02-11T16:15:59;14.82;;;9.40;;
41179;SDS011;26913;48.240;16.496;2023-02-11T16:18:38;14.75;;;9.80;;
41179;SDS011;26913;48.240;16.496;2023-02-11T16:21:15;14.90;;;9.20;;
41179;SDS011;26913;48.240;16.496;2023-02-11T16:23:42;14.47;;;9.80;;
41179;SDS011;26913;48.240;16.496;2023-02-11T16:26:23;17.17;;;9.60;;
41179;SDS011;26913;48.240;16.496;2023-02-11T16:28:52;16.88;;;10.25;;
41179;SDS011;26913;48.240;16.496;2023-02-11T16:31:18;14.93;;;10.32;;
41179;SDS011;26913;48.240;16.496;2023-02-11T16:33:44;14.80;;;10.38;;
41179;SDS011;26913;48.240;16.496;2023-02-11T16:36:10;14.52;;;10.27;;
41179;SDS011;26913;48.240;16.496;2023-02-11T16:38:38;13.95;;;9.60;;
41179;SDS011;26913;48.240;16.496;2023-02-11T16:41:04;18.30;;;11.07;;
41179;SDS011;26913;48.240;16.496;2023-02-11T16:43:31;15.18;;;10.55;;
41179;SDS011;26913;48.240;16.496;2023-02-11T16:45:57;17.35;;;10.65;;
41179;SDS011;26913;48.240;16.496;2023-02-11T16:48:23;16.30;;;9.95;;
41179;SDS011;26913;48.240;16.496;2023-02-11T16:50:49;15.95;;;10.23;;
41179;SDS011;26913;48.240;16.496;2023-02-11T16:53:16;23.40;;;10.70;;
41179;SDS011;26913;48.240;16.496;2023-02-11T16:55:45;19.58;;;11.80;;
41179;SDS011;26913;48.240;16.496;2023-02-11T16:58:11;19.92;;;12.02;;
41179;SDS011;26913;48.240;16.496;2023-02-11T17:00:37;14.98;;;10.90;;
41179;SDS011;26913;48.240;16.496;2023-02-11T17:03:05;18.40;;;11.88;;
41179;SDS011;26913;48.240;16.496;2023-02-11T17:05:32;17.42;;;11.27;;
41179;SDS011;26913;48.240;16.496;2023-02-11T17:07:58;17.90;;;11.48;;
41179;SDS011;26913;48.240;16.496;2023-02-11T17:10:26;20.23;;;12.57;;
41179;SDS011;26913;48.240;16.496;2023-02-11T17:12:53;21.10;;;11.38;;
41179;SDS011;26913;48.240;16.496;2023-02-11T17:15:19;21.10;;;12.45;;
41179;SDS011;26913;48.240;16.496;2023-02-11T17:17:44;18.65;;;11.23;;